createdAt,value
2022-08-08T00:01:06.622Z,23.00
2022-08-08T00:03:50.413Z,23.00
2022-08-08T00:06:41.783Z,23.00
2022-08-08T00:09:12.003Z,23.10
2022-08-08T00:11:46.704Z,23.10
2022-08-08T00:14:48.642Z,23.00
2022-08-08T00:17:35.201Z,23.00
2022-08-08T00:20:14.962Z,23.00
2022-08-08T00:22:48.650Z,22.90
2022-08-08T00:25:20.764Z,22.80
2022-08-08T00:27:50.311Z,22.60
2022-08-08T00:30:18.522Z,22.50
2022-08-08T00:32:48.261Z,22.40
2022-08-08T00:35:20.976Z,22.40
2022-08-08T00:38:06.710Z,22.40
2022-08-08T00:41:08.926Z,22.40
2022-08-08T00:43:23.667Z,22.40
2022-08-08T00:45:54.878Z,22.30
2022-08-08T00:48:36.910Z,22.20
2022-08-08T00:51:07.047Z,22.20
2022-08-08T00:53:43.653Z,22.10
2022-08-08T00:56:50.486Z,22.20
2022-08-08T00:59:43.661Z,22.20
2022-08-08T01:03:59.237Z,22.20
2022-08-08T01:05:42.391Z,22.10
2022-08-08T01:08:30.914Z,22.00
2022-08-08T01:11:00.431Z,22.00
2022-08-08T01:13:43.488Z,21.90
2022-08-08T01:16:28.167Z,21.90
2022-08-08T01:19:16.568Z,21.90
2022-08-08T01:22:12.641Z,21.80
2022-08-08T01:24:40.693Z,21.80
2022-08-08T01:27:21.333Z,21.80
2022-08-08T01:30:03.195Z,21.90
2022-08-08T01:32:42.122Z,21.80
2022-08-08T01:35:30.290Z,21.90
2022-08-08T01:38:16.016Z,21.80
2022-08-08T01:40:49.347Z,21.80
2022-08-08T01:43:19.119Z,21.80
2022-08-08T01:45:57.523Z,21.80
2022-08-08T01:48:36.598Z,21.70
2022-08-08T01:51:31.336Z,21.70
2022-08-08T01:55:27.112Z,21.60
2022-08-08T01:57:17.268Z,21.60
2022-08-08T02:00:02.866Z,21.60
2022-08-08T02:02:48.980Z,21.60
2022-08-08T02:05:33.940Z,21.50
2022-08-08T02:08:22.114Z,21.50
2022-08-08T02:11:07.843Z,21.50
2022-08-08T02:13:55.594Z,21.40
2022-08-08T02:16:31.339Z,21.30
2022-08-08T02:19:10.055Z,21.30
2022-08-08T02:22:13.262Z,21.30
2022-08-08T02:24:45.548Z,21.40
2022-08-08T02:27:14.582Z,21.40
2022-08-08T02:30:00.436Z,21.40
2022-08-08T02:32:28.443Z,21.40
2022-08-08T02:35:08.907Z,21.40
2022-08-08T02:37:58.369Z,21.40
2022-08-08T02:40:33.749Z,21.30
2022-08-08T02:44:38.804Z,21.30
2022-08-08T02:46:06.005Z,21.20
2022-08-08T02:48:49.838Z,21.20
2022-08-08T02:51:46.477Z,21.20
2022-08-08T02:54:34.416Z,21.10
2022-08-08T02:57:05.087Z,21.00
2022-08-08T02:59:57.439Z,21.00
2022-08-08T03:02:50.258Z,21.00
2022-08-08T03:05:21.734Z,21.00
2022-08-08T03:07:58.305Z,21.00
2022-08-08T03:10:53.439Z,21.00
2022-08-08T03:15:53.712Z,21.00
2022-08-08T03:16:34.497Z,21.00
2022-08-08T03:19:03.711Z,21.00
2022-08-08T03:21:40.863Z,21.00
2022-08-08T03:24:18.039Z,20.90
2022-08-08T03:26:56.130Z,20.80
2022-08-08T03:29:27.123Z,20.70
2022-08-08T03:32:30.446Z,20.70
2022-08-08T03:34:57.502Z,20.80
2022-08-08T03:38:52.875Z,20.70
2022-08-08T03:40:29.065Z,20.70
2022-08-08T03:42:56.903Z,20.60
2022-08-08T03:46:05.676Z,20.60
2022-08-08T03:48:21.140Z,20.60
2022-08-08T03:50:58.977Z,20.70
2022-08-08T03:53:42.538Z,20.70
2022-08-08T03:56:31.625Z,20.70
2022-08-08T03:58:59.289Z,20.60
2022-08-08T04:02:12.483Z,20.60
2022-08-08T04:04:23.094Z,20.60
2022-08-08T04:06:57.873Z,20.60
2022-08-08T04:09:28.399Z,20.80
2022-08-08T04:12:15.667Z,21.10
2022-08-08T04:14:45.269Z,21.50
2022-08-08T04:17:22.439Z,21.70
2022-08-08T04:19:59.288Z,22.00
2022-08-08T04:22:30.428Z,22.50
2022-08-08T04:24:57.194Z,22.90
2022-08-08T04:28:03.219Z,23.30
2022-08-08T04:30:17.746Z,23.70
2022-08-08T04:32:46.865Z,23.90
2022-08-08T04:35:16.635Z,24.40
2022-08-08T04:37:43.346Z,24.70
2022-08-08T04:40:12.757Z,25.00
2022-08-08T04:42:46.585Z,25.50
2022-08-08T04:45:26.941Z,25.60
2022-08-08T04:47:54.242Z,25.50
2022-08-08T04:50:23.840Z,25.60
2022-08-08T04:53:00.387Z,25.90
2022-08-08T04:55:47.403Z,26.20
2022-08-08T04:58:18.626Z,26.80
2022-08-08T05:00:48.608Z,26.90
2022-08-08T05:03:18.680Z,27.00
2022-08-08T05:06:13.151Z,27.20
2022-08-08T05:08:45.061Z,27.40
2022-08-08T05:11:22.802Z,27.80
2022-08-08T05:13:58.191Z,28.10
2022-08-08T05:16:55.396Z,28.70
2022-08-08T05:20:09.786Z,29.00
2022-08-08T05:22:03.637Z,29.00
2022-08-08T05:24:30.737Z,29.30
2022-08-08T05:26:57.665Z,29.70
2022-08-08T05:29:24.514Z,30.10
2022-08-08T05:32:03.533Z,30.00
2022-08-08T05:34:34.477Z,29.80
2022-08-08T05:37:03.792Z,29.90
2022-08-08T05:39:43.312Z,30.20
2022-08-08T05:42:10.234Z,30.30
2022-08-08T05:44:37.524Z,30.00
2022-08-08T05:47:06.100Z,30.10
2022-08-08T05:49:32.838Z,30.20
2022-08-08T05:52:05.020Z,30.40
2022-08-08T05:54:50.350Z,30.90
2022-08-08T05:57:36.721Z,31.60
2022-08-08T06:00:23.101Z,32.20
2022-08-08T06:03:17.238Z,32.70
2022-08-08T06:05:59.303Z,33.40
2022-08-08T06:08:34.674Z,33.90
2022-08-08T06:11:02.054Z,34.40
2022-08-08T06:13:30.020Z,34.80
2022-08-08T06:16:02.906Z,35.10
2022-08-08T06:18:30.223Z,35.50
2022-08-08T06:20:57.812Z,36.10
2022-08-08T06:23:49.030Z,36.20
2022-08-08T06:26:38.462Z,36.20
2022-08-08T06:29:26.500Z,36.00
2022-08-08T06:32:10.362Z,36.20
2022-08-08T06:34:38.277Z,36.70
2022-08-08T06:37:24.426Z,37.20
2022-08-08T06:39:56.552Z,37.20
2022-08-08T06:42:23.593Z,37.10
2022-08-08T06:44:52.963Z,37.10
2022-08-08T06:47:22.023Z,37.80
2022-08-08T06:49:55.367Z,38.40
2022-08-08T06:52:23.854Z,38.50
2022-08-08T06:54:55.443Z,38.70
2022-08-08T06:57:25.052Z,38.60
2022-08-08T07:00:10.331Z,38.90
2022-08-08T07:02:45.130Z,39.30
2022-08-08T07:05:20.560Z,39.90
2022-08-08T07:07:51.677Z,40.50
2022-08-08T07:10:20.771Z,40.70
2022-08-08T07:13:04.896Z,40.10
2022-08-08T07:16:04.442Z,39.90
2022-08-08T07:18:35.753Z,40.20
2022-08-08T07:21:19.181Z,40.70
2022-08-08T07:24:01.161Z,40.90
2022-08-08T07:26:35.188Z,40.50
2022-08-08T07:29:05.857Z,39.90
2022-08-08T07:31:35.881Z,39.90
2022-08-08T07:34:03.901Z,40.00
2022-08-08T07:36:35.644Z,39.70
2022-08-08T07:39:03.799Z,39.40
2022-08-08T07:41:37.513Z,39.50
2022-08-08T07:44:40.246Z,39.00
2022-08-08T07:47:04.673Z,37.70
2022-08-08T07:49:31.430Z,36.60
2022-08-08T07:51:58.244Z,36.20
2022-08-08T07:54:26.643Z,36.40
2022-08-08T07:56:59.984Z,36.40
2022-08-08T07:59:37.860Z,36.40
2022-08-08T08:02:34.910Z,36.90
2022-08-08T08:04:53.337Z,37.60
2022-08-08T08:07:26.093Z,38.10
2022-08-08T08:09:59.237Z,38.90
2022-08-08T08:12:35.632Z,39.60
2022-08-08T08:15:09.894Z,40.30
2022-08-08T08:17:47.587Z,41.00
2022-08-08T08:20:16.391Z,41.30
2022-08-08T08:22:43.450Z,42.00
2022-08-08T08:25:10.160Z,42.70
2022-08-08T08:27:37.082Z,43.00
2022-08-08T08:30:04.299Z,42.90
2022-08-08T08:32:36.176Z,42.70
2022-08-08T08:35:07.938Z,42.30
2022-08-08T08:37:53.037Z,42.00
2022-08-08T08:40:21.655Z,41.90
2022-08-08T08:42:49.209Z,42.00
2022-08-08T08:45:22.713Z,42.30
2022-08-08T08:47:52.897Z,42.60
2022-08-08T08:50:32.978Z,42.90
2022-08-08T08:53:28.178Z,43.30
2022-08-08T08:55:56.122Z,43.40
2022-08-08T08:58:39.939Z,43.50
2022-08-08T09:01:13.417Z,43.70
2022-08-08T09:03:46.900Z,43.60
2022-08-08T09:06:33.239Z,43.70
2022-08-08T09:09:02.039Z,43.90
2022-08-08T09:11:33.092Z,44.10
2022-08-08T09:14:00.582Z,44.20
2022-08-08T09:16:28.789Z,44.50
2022-08-08T09:18:55.958Z,44.60
2022-08-08T09:22:01.798Z,44.50
2022-08-08T09:24:13.457Z,44.10
2022-08-08T09:26:49.906Z,43.90
2022-08-08T09:29:24.535Z,44.00
2022-08-08T09:31:56.158Z,44.00
2022-08-08T09:34:31.324Z,44.10
2022-08-08T09:37:57.180Z,44.10
2022-08-08T09:40:10.620Z,44.10
2022-08-08T09:42:51.832Z,43.90
2022-08-08T09:46:03.053Z,43.20
2022-08-08T09:48:38.815Z,42.90
2022-08-08T09:51:09.443Z,42.90
2022-08-08T09:53:58.990Z,42.40
2022-08-08T09:56:29.150Z,41.70
2022-08-08T09:59:20.122Z,41.10
2022-08-08T10:01:59.363Z,40.10
2022-08-08T10:04:41.948Z,39.30
2022-08-08T10:07:15.971Z,39.10
2022-08-08T10:09:59.444Z,38.60
2022-08-08T10:12:37.756Z,38.50
2022-08-08T10:15:17.669Z,38.50
2022-08-08T10:18:07.369Z,38.40
2022-08-08T10:20:57.646Z,37.90
2022-08-08T10:23:43.247Z,37.60
2022-08-08T10:26:30.155Z,37.10
2022-08-08T10:28:58.135Z,36.90
2022-08-08T10:31:48.888Z,36.70
2022-08-08T10:34:18.528Z,36.20
2022-08-08T10:36:47.256Z,35.90
2022-08-08T10:39:31.541Z,35.70
2022-08-08T10:42:16.736Z,35.70
2022-08-08T10:44:43.965Z,35.80
2022-08-08T10:47:13.591Z,35.80
2022-08-08T10:50:01.403Z,35.90
2022-08-08T10:52:41.524Z,35.90
2022-08-08T10:55:15.363Z,36.00
2022-08-08T10:57:49.988Z,36.00
2022-08-08T11:00:26.390Z,35.80
2022-08-08T11:02:53.720Z,35.80
2022-08-08T11:05:23.044Z,35.80
2022-08-08T11:08:38.392Z,35.70
2022-08-08T11:10:41.287Z,35.40
2022-08-08T11:16:00.829Z,34.50
2022-08-08T11:18:37.318Z,34.70
2022-08-08T11:21:09.053Z,35.00
2022-08-08T11:23:36.895Z,35.20
2022-08-08T11:26:04.184Z,35.40
2022-08-08T11:28:32.297Z,35.50
2022-08-08T11:31:00.092Z,35.40
2022-08-08T11:33:52.559Z,35.00
2022-08-08T11:36:15.155Z,34.90
2022-08-08T11:38:53.632Z,34.90
2022-08-08T11:41:22.283Z,34.90
2022-08-08T11:43:49.554Z,35.00
2022-08-08T11:46:18.306Z,35.20
2022-08-08T11:48:47.694Z,35.60
2022-08-08T11:51:38.897Z,35.80
2022-08-08T11:54:04.074Z,35.80
2022-08-08T11:56:34.850Z,36.00
2022-08-08T11:59:09.605Z,36.10
2022-08-08T12:01:37.149Z,36.20
2022-08-08T12:04:04.882Z,36.40
2022-08-08T12:06:32.731Z,36.70
2022-08-08T12:09:06.818Z,36.70
2022-08-08T12:11:37.796Z,36.70
2022-08-08T12:14:04.848Z,36.60
2022-08-08T12:16:39.578Z,36.20
2022-08-08T12:19:12.321Z,35.60
2022-08-08T12:21:59.896Z,35.20
2022-08-08T12:24:28.315Z,34.70
2022-08-08T12:26:57.117Z,34.50
2022-08-08T12:29:36.273Z,34.50
2022-08-08T12:32:20.004Z,34.30
2022-08-08T12:35:04.210Z,33.90
2022-08-08T12:37:40.607Z,33.50
2022-08-08T12:40:31.540Z,33.30
2022-08-08T12:42:58.306Z,33.40
2022-08-08T12:45:58.657Z,33.40
2022-08-08T12:48:37.708Z,33.50
2022-08-08T12:51:05.671Z,33.80
2022-08-08T12:53:42.336Z,34.00
2022-08-08T12:56:19.133Z,33.70
2022-08-08T12:58:51.248Z,33.60
2022-08-08T13:01:34.575Z,33.50
2022-08-08T13:04:12.050Z,33.50
2022-08-08T13:06:54.645Z,33.40
2022-08-08T13:09:30.463Z,33.20
2022-08-08T13:12:26.944Z,33.00
2022-08-08T13:14:52.536Z,32.80
2022-08-08T13:18:01.495Z,32.80
2022-08-08T13:20:13.940Z,32.70
2022-08-08T13:22:44.270Z,32.80
2022-08-08T13:25:22.035Z,32.80
2022-08-08T13:27:56.514Z,32.90
2022-08-08T13:30:28.294Z,33.00
2022-08-08T13:32:58.836Z,33.00
2022-08-08T13:35:38.172Z,32.90
2022-08-08T13:38:08.207Z,32.80
2022-08-08T13:40:41.180Z,32.80
2022-08-08T13:43:08.274Z,32.90
2022-08-08T13:45:35.291Z,32.90
2022-08-08T13:48:03.096Z,33.10
2022-08-08T13:50:49.183Z,33.10
2022-08-08T13:53:34.230Z,33.00
2022-08-08T13:56:11.830Z,33.00
2022-08-08T13:58:57.818Z,32.90
2022-08-08T14:01:32.901Z,32.80
2022-08-08T14:04:09.641Z,32.80
2022-08-08T14:06:43.995Z,32.70
2022-08-08T14:09:24.990Z,32.60
2022-08-08T14:11:59.998Z,32.50
2022-08-08T14:14:39.901Z,32.50
2022-08-08T14:17:06.991Z,32.50
2022-08-08T14:19:57.128Z,32.40
2022-08-08T14:22:29.790Z,32.30
2022-08-08T14:25:00.623Z,32.30
2022-08-08T14:27:34.224Z,32.30
2022-08-08T14:30:01.010Z,32.30
2022-08-08T14:32:30.425Z,32.30
2022-08-08T14:34:58.504Z,32.30
2022-08-08T14:37:27.903Z,32.10
2022-08-08T14:40:10.307Z,31.90
2022-08-08T14:42:55.132Z,31.80
2022-08-08T14:45:33.542Z,31.70
2022-08-08T14:48:11.008Z,31.70
2022-08-08T14:50:39.712Z,31.70
2022-08-08T14:53:13.493Z,31.60
2022-08-08T14:55:43.030Z,31.50
2022-08-08T14:58:12.047Z,31.50
2022-08-08T15:00:44.488Z,31.50
2022-08-08T15:03:15.605Z,31.50
2022-08-08T15:05:54.335Z,31.40
2022-08-08T15:08:34.778Z,31.40
2022-08-08T15:11:09.432Z,31.40
2022-08-08T15:14:01.731Z,31.30
2022-08-08T15:16:34.689Z,31.20
2022-08-08T15:19:01.671Z,31.20
2022-08-08T15:21:30.302Z,31.20
2022-08-08T15:23:57.372Z,31.10
2022-08-08T15:26:25.750Z,31.10
2022-08-08T15:28:53.136Z,31.10
2022-08-08T15:32:02.546Z,31.00
2022-08-08T15:34:08.537Z,31.00
2022-08-08T15:36:45.105Z,30.90
2022-08-08T15:39:11.899Z,30.80
2022-08-08T15:41:44.089Z,30.80
2022-08-08T15:44:13.868Z,30.80
2022-08-08T15:46:45.140Z,30.70
2022-08-08T15:49:12.557Z,30.70
2022-08-08T15:51:43.709Z,30.60
2022-08-08T15:54:18.916Z,30.60
2022-08-08T15:56:57.226Z,30.40
2022-08-08T16:00:25.819Z,30.40
2022-08-08T16:02:14.072Z,30.30
2022-08-08T16:04:42.424Z,30.40
2022-08-08T16:07:09.256Z,30.40
2022-08-08T16:13:21.205Z,30.40
2022-08-08T16:13:28.933Z,30.30
2022-08-08T16:15:09.597Z,30.30
2022-08-08T16:18:06.517Z,30.30
2022-08-08T16:20:29.283Z,30.20
2022-08-08T16:22:56.263Z,30.10
2022-08-08T16:25:24.470Z,30.00
2022-08-08T16:28:34.005Z,30.00
2022-08-08T16:30:56.658Z,29.90
2022-08-08T16:33:29.666Z,29.90
2022-08-08T16:36:05.415Z,29.80
2022-08-08T16:38:36.598Z,29.80
2022-08-08T16:41:18.414Z,29.80
2022-08-08T16:43:49.248Z,29.70
2022-08-08T16:46:36.690Z,29.40
2022-08-08T16:49:06.064Z,29.10
2022-08-08T16:55:03.423Z,28.50
2022-08-08T16:55:05.351Z,28.70
2022-08-08T16:57:22.859Z,28.30
2022-08-08T16:59:58.164Z,28.10
2022-08-08T17:02:44.185Z,27.90
2022-08-08T17:05:13.685Z,27.80
2022-08-08T17:07:41.712Z,27.70
2022-08-08T17:10:09.316Z,27.60
2022-08-08T17:12:36.429Z,27.50
2022-08-08T17:15:20.559Z,27.40
2022-08-08T17:18:03.772Z,27.20
2022-08-08T17:20:39.577Z,27.20
2022-08-08T17:23:17.856Z,27.10
2022-08-08T17:25:56.452Z,27.10
2022-08-08T17:28:35.113Z,27.10
2022-08-08T17:31:39.109Z,27.00
2022-08-08T17:34:37.190Z,26.90
2022-08-08T17:36:55.493Z,26.80
2022-08-08T17:40:04.029Z,26.70
2022-08-08T17:42:12.918Z,26.70
2022-08-08T17:44:39.696Z,26.60
2022-08-08T17:47:06.731Z,26.50
2022-08-08T17:49:42.859Z,26.50
2022-08-08T17:52:10.522Z,26.50
2022-08-08T17:54:37.506Z,26.40
2022-08-08T17:57:05.857Z,26.40
2022-08-08T17:59:36.076Z,26.40
2022-08-08T18:02:16.381Z,26.40
2022-08-08T18:04:50.694Z,26.40
2022-08-08T18:08:01.757Z,26.50
2022-08-08T18:10:04.962Z,26.50
2022-08-08T18:12:31.789Z,26.50
2022-08-08T18:14:58.689Z,26.50
2022-08-08T18:18:05.415Z,26.50
2022-08-08T18:20:37.203Z,26.50
2022-08-08T18:23:00.500Z,26.50
2022-08-08T18:25:37.023Z,26.60
2022-08-08T18:28:04.593Z,26.60
2022-08-08T18:30:31.856Z,26.60
2022-08-08T18:32:58.665Z,26.60
2022-08-08T18:35:25.425Z,26.70
2022-08-08T18:38:03.928Z,26.70
2022-08-08T18:40:45.808Z,26.80
2022-08-08T18:43:16.147Z,26.80
2022-08-08T18:46:00.970Z,26.70
2022-08-08T18:48:30.798Z,26.70
2022-08-08T18:50:58.384Z,26.80
2022-08-08T18:53:29.618Z,26.70
2022-08-08T18:56:25.006Z,26.70
2022-08-08T18:58:53.452Z,26.80
2022-08-08T19:02:26.541Z,26.70
2022-08-08T19:04:11.145Z,26.70
2022-08-08T19:06:39.565Z,26.70
2022-08-08T19:09:13.571Z,26.60
2022-08-08T19:11:46.335Z,26.60
2022-08-08T19:14:13.902Z,26.60
2022-08-08T19:16:47.853Z,26.50
2022-08-08T19:19:14.975Z,26.40
2022-08-08T19:21:48.813Z,26.20
2022-08-08T19:24:18.610Z,26.20
2022-08-08T19:27:04.113Z,26.20
2022-08-08T19:29:30.995Z,26.10
2022-08-08T19:31:57.892Z,26.10
2022-08-08T19:34:35.561Z,26.10
2022-08-08T19:37:05.496Z,26.10
2022-08-08T19:39:35.699Z,25.90
2022-08-08T19:42:06.926Z,25.70
2022-08-08T19:44:45.448Z,25.50
2022-08-08T19:47:13.929Z,25.40
2022-08-08T19:49:43.080Z,25.40
2022-08-08T19:52:11.837Z,25.30
2022-08-08T19:54:40.158Z,25.30
2022-08-08T19:57:09.940Z,25.30
2022-08-08T19:59:41.277Z,25.30
2022-08-08T20:02:10.605Z,25.30
2022-08-08T20:04:38.343Z,25.30
2022-08-08T20:08:29.730Z,25.30
2022-08-08T20:09:55.711Z,25.30
2022-08-08T20:12:31.675Z,25.20
2022-08-08T20:15:02.444Z,25.20
2022-08-08T20:17:41.876Z,25.20
2022-08-08T20:20:10.478Z,25.10
2022-08-08T20:22:38.758Z,25.00
2022-08-08T20:25:05.802Z,24.90
2022-08-08T20:27:49.183Z,24.80
2022-08-08T20:30:52.780Z,24.80
2022-08-08T20:33:04.148Z,24.70
2022-08-08T20:35:58.931Z,24.70
2022-08-08T20:38:32.280Z,24.70
2022-08-08T20:41:00.572Z,24.60
2022-08-08T20:43:43.403Z,24.60
2022-08-08T20:46:14.793Z,24.60
2022-08-08T20:48:41.493Z,24.60
2022-08-08T20:51:08.795Z,24.60
2022-08-08T20:54:00.040Z,24.60
2022-08-08T20:56:36.059Z,24.50
2022-08-08T20:59:10.011Z,24.50
2022-08-08T21:02:05.643Z,24.50
2022-08-08T21:04:23.558Z,24.50
2022-08-08T21:06:54.204Z,24.40
2022-08-08T21:09:21.503Z,24.40
2022-08-08T21:11:50.875Z,24.40
2022-08-08T21:14:33.590Z,24.50
2022-08-08T21:17:06.161Z,24.50
2022-08-08T21:19:45.648Z,24.60
2022-08-08T21:22:13.657Z,24.70
2022-08-08T21:24:41.798Z,24.70
2022-08-08T21:27:15.397Z,24.70
2022-08-08T21:30:05.317Z,24.70
2022-08-08T21:32:37.302Z,24.80
2022-08-08T21:36:17.680Z,24.90
2022-08-08T21:37:54.262Z,24.90
2022-08-08T21:40:31.142Z,24.80
2022-08-08T21:42:58.725Z,24.80
2022-08-08T21:48:02.411Z,24.80
2022-08-08T21:48:16.324Z,24.70
2022-08-08T21:50:46.437Z,24.50
2022-08-08T21:54:31.838Z,24.50
2022-08-08T21:56:25.924Z,24.40
2022-08-08T21:58:54.801Z,24.40
2022-08-08T22:01:38.949Z,24.40
2022-08-08T22:04:10.451Z,24.40
2022-08-08T22:06:40.528Z,24.50
2022-08-08T22:09:08.326Z,24.50
2022-08-08T22:12:02.121Z,24.50
2022-08-08T22:14:22.430Z,24.40
2022-08-08T22:16:53.425Z,24.40
2022-08-08T22:19:23.613Z,24.40
2022-08-08T22:21:51.552Z,24.50
2022-08-08T22:24:28.207Z,24.50
2022-08-08T22:27:02.417Z,24.50
2022-08-08T22:29:59.736Z,24.50
2022-08-08T22:32:17.920Z,24.50
2022-08-08T22:34:50.451Z,24.50
2022-08-08T22:37:27.552Z,24.40
2022-08-08T22:40:06.109Z,24.40
2022-08-08T22:42:34.571Z,24.40
2022-08-08T22:45:05.294Z,24.40
2022-08-08T22:47:41.393Z,24.40
2022-08-08T22:50:25.961Z,24.40
2022-08-08T22:54:15.831Z,24.40
2022-08-08T22:55:58.454Z,24.50
2022-08-08T22:58:29.145Z,24.50
2022-08-08T23:00:59.681Z,24.50
2022-08-08T23:03:34.141Z,24.50
2022-08-08T23:06:14.268Z,24.50
2022-08-08T23:08:44.537Z,24.50
2022-08-08T23:11:23.145Z,24.50
2022-08-08T23:14:01.654Z,24.60
2022-08-08T23:16:40.449Z,24.50
2022-08-08T23:19:09.511Z,24.40
2022-08-08T23:21:38.001Z,24.50
2022-08-08T23:24:06.129Z,24.40
2022-08-08T23:26:33.964Z,24.50
2022-08-08T23:29:01.265Z,24.50
2022-08-08T23:31:28.002Z,24.40
2022-08-08T23:34:17.058Z,24.40
2022-08-08T23:36:41.421Z,24.20
2022-08-08T23:39:09.463Z,24.10
2022-08-08T23:41:45.613Z,24.00
2022-08-08T23:44:12.744Z,24.00
2022-08-08T23:49:02.099Z,24.00
2022-08-08T23:49:26.246Z,24.00
2022-08-08T23:52:06.306Z,24.10
2022-08-08T23:54:41.858Z,24.10
2022-08-08T23:57:26.805Z,24.00
